sensor_id;sensor_type;location;lat;lon;timestamp;pressure;altitude;pressure_sealevel;temperature;humidity
25658;BME280;13517;59.320;18.042;2023-08-07T00:01:11;99479.84;;;18.24;100.00
25658;BME280;13517;59.320;18.042;2023-08-07T00:03:36;99461.66;;;18.17;100.00
25658;BME280;13517;59.320;18.042;2023-08-07T00:06:02;99502.13;;;18.45;100.00
25658;BME280;13517;59.320;18.042;2023-08-07T00:08:27;99468.25;;;18.22;100.00
25658;BME280;13517;59.320;18.042;2023-08-07T00:10:53;99489.53;;;18.35;100.00
25658;BME280;13517;59.320;18.042;2023-08-07T00:13:18;99495.63;;;18.46;100.00
25658;BME280;13517;59.320;18.042;2023-08-07T00:15:44;99512.88;;;18.46;100.00
25658;BME280;13517;59.320;18.042;2023-08-07T00:18:09;99524.59;;;18.55;100.00
25658;BME280;13517;59.320;18.042;2023-08-07T00:20:35;99496.88;;;18.35;100.00
25658;BME280;13517;59.320;18.042;2023-08-07T00:23:00;99498.28;;;18.54;100.00
25658;BME280;13517;59.320;18.042;2023-08-07T00:25:25;99449.00;;;18.39;100.00
25658;BME280;13517;59.320;18.042;2023-08-07T00:27:52;99469.72;;;18.57;100.00
25658;BME280;13517;59.320;18.042;2023-08-07T00:30:17;99449.56;;;18.58;100.00
25658;BME280;13517;59.320;18.042;2023-08-07T00:32:43;99422.34;;;18.64;100.00
25658;BME280;13517;59.320;18.042;2023-08-07T00:35:08;99368.06;;;18.53;100.00
25658;BME280;13517;59.320;18.042;2023-08-07T00:37:34;99333.78;;;18.65;100.00
25658;BME280;13517;59.320;18.042;2023-08-07T00:39:59;99250.28;;;18.40;100.00
25658;BME280;13517;59.320;18.042;2023-08-07T00:42:25;99224.44;;;18.27;100.00
25658;BME280;13517;59.320;18.042;2023-08-07T00:44:50;99243.44;;;18.44;100.00
25658;BME280;13517;59.320;18.042;2023-08-07T00:47:15;99258.53;;;18.55;100.00
25658;BME280;13517;59.320;18.042;2023-08-07T00:49:41;99245.78;;;18.47;100.00
25658;BME280;13517;59.320;18.042;2023-08-07T00:52:07;99266.59;;;18.48;100.00
25658;BME280;13517;59.320;18.042;2023-08-07T00:54:33;99287.66;;;18.47;100.00
25658;BME280;13517;59.320;18.042;2023-08-07T00:57:14;99307.81;;;18.46;100.00
25658;BME280;13517;59.320;18.042;2023-08-07T00:59:41;99323.59;;;18.59;100.00
25658;BME280;13517;59.320;18.042;2023-08-07T01:02:07;99359.78;;;18.61;100.00
25658;BME280;13517;59.320;18.042;2023-08-07T01:04:32;99366.19;;;18.54;100.00
25658;BME280;13517;59.320;18.042;2023-08-07T01:06:58;99267.00;;;18.45;100.00
25658;BME280;13517;59.320;18.042;2023-08-07T01:09:23;99197.03;;;18.35;100.00
25658;BME280;13517;59.320;18.042;2023-08-07T01:12:11;99205.16;;;18.44;100.00
25658;BME280;13517;59.320;18.042;2023-08-07T01:15:42;99267.94;;;18.52;100.00
25658;BME280;13517;59.320;18.042;2023-08-07T01:18:01;99312.63;;;18.44;100.00
25658;BME280;13517;59.320;18.042;2023-08-07T01:20:29;99299.63;;;18.46;100.00
25658;BME280;13517;59.320;18.042;2023-08-07T01:22:54;99291.13;;;18.41;100.00
25658;BME280;13517;59.320;18.042;2023-08-07T01:25:20;99267.63;;;18.32;100.00
25658;BME280;13517;59.320;18.042;2023-08-07T01:30:54;99272.81;;;18.42;100.00
25658;BME280;13517;59.320;18.042;2023-08-07T01:33:25;99241.31;;;18.16;100.00
25658;BME280;13517;59.320;18.042;2023-08-07T01:35:55;99292.66;;;18.44;100.00
25658;BME280;13517;59.320;18.042;2023-08-07T01:38:24;99271.13;;;18.41;100.00
25658;BME280;13517;59.320;18.042;2023-08-07T01:40:51;99245.28;;;18.28;100.00
25658;BME280;13517;59.320;18.042;2023-08-07T01:43:18;99245.97;;;18.30;100.00
25658;BME280;13517;59.320;18.042;2023-08-07T01:45:45;99261.88;;;18.42;100.00
25658;BME280;13517;59.320;18.042;2023-08-07T01:48:10;99214.00;;;18.16;100.00
25658;BME280;13517;59.320;18.042;2023-08-07T01:50:38;99230.59;;;18.29;100.00
25658;BME280;13517;59.320;18.042;2023-08-07T01:53:03;99212.88;;;18.25;100.00
25658;BME280;13517;59.320;18.042;2023-08-07T01:55:29;99233.91;;;18.40;100.00
25658;BME280;13517;59.320;18.042;2023-08-07T01:57:54;99231.56;;;18.36;100.00
25658;BME280;13517;59.320;18.042;2023-08-07T02:00:19;99236.63;;;18.40;100.00
25658;BME280;13517;59.320;18.042;2023-08-07T02:02:45;99166.28;;;18.03;100.00
25658;BME280;13517;59.320;18.042;2023-08-07T02:05:12;99228.59;;;18.38;100.00
25658;BME280;13517;59.320;18.042;2023-08-07T02:07:37;99195.22;;;18.13;100.00
25658;BME280;13517;59.320;18.042;2023-08-07T02:10:03;99220.69;;;18.28;100.00
25658;BME280;13517;59.320;18.042;2023-08-07T02:12:28;99201.28;;;18.23;100.00
25658;BME280;13517;59.320;18.042;2023-08-07T02:14:57;99197.69;;;18.22;100.00
25658;BME280;13517;59.320;18.042;2023-08-07T02:17:24;99208.75;;;18.29;100.00
25658;BME280;13517;59.320;18.042;2023-08-07T02:19:50;99174.41;;;18.12;100.00
25658;BME280;13517;59.320;18.042;2023-08-07T02:22:16;99192.13;;;18.16;100.00
25658;BME280;13517;59.320;18.042;2023-08-07T02:24:41;99213.03;;;18.23;100.00
25658;BME280;13517;59.320;18.042;2023-08-07T02:27:06;99208.25;;;18.26;100.00
25658;BME280;13517;59.320;18.042;2023-08-07T02:29:32;99212.47;;;18.28;100.00
25658;BME280;13517;59.320;18.042;2023-08-07T02:32:01;99203.63;;;18.26;100.00
25658;BME280;13517;59.320;18.042;2023-08-07T02:34:28;99211.72;;;18.34;100.00
25658;BME280;13517;59.320;18.042;2023-08-07T02:36:53;99172.31;;;18.14;100.00
25658;BME280;13517;59.320;18.042;2023-08-07T02:39:18;99210.03;;;18.33;100.00
25658;BME280;13517;59.320;18.042;2023-08-07T02:41:44;99193.34;;;18.13;100.00
25658;BME280;13517;59.320;18.042;2023-08-07T02:44:09;99185.03;;;18.06;100.00
25658;BME280;13517;59.320;18.042;2023-08-07T02:46:35;99227.00;;;18.29;100.00
25658;BME280;13517;59.320;18.042;2023-08-07T02:49:01;99220.97;;;18.18;100.00
25658;BME280;13517;59.320;18.042;2023-08-07T02:51:26;99221.16;;;18.17;100.00
25658;BME280;13517;59.320;18.042;2023-08-07T02:53:52;99223.31;;;18.21;100.00
25658;BME280;13517;59.320;18.042;2023-08-07T02:56:17;99199.28;;;18.17;100.00
25658;BME280;13517;59.320;18.042;2023-08-07T02:58:43;99180.91;;;18.10;100.00
25658;BME280;13517;59.320;18.042;2023-08-07T03:01:08;99210.31;;;18.23;100.00
25658;BME280;13517;59.320;18.042;2023-08-07T03:03:34;99170.22;;;18.01;100.00
25658;BME280;13517;59.320;18.042;2023-08-07T03:06:00;99180.78;;;18.04;100.00
25658;BME280;13517;59.320;18.042;2023-08-07T03:08:25;99160.91;;;17.95;100.00
25658;BME280;13517;59.320;18.042;2023-08-07T03:10:56;99161.94;;;17.94;100.00
25658;BME280;13517;59.320;18.042;2023-08-07T03:13:22;99189.66;;;18.06;100.00
25658;BME280;13517;59.320;18.042;2023-08-07T03:15:48;99201.78;;;18.03;100.00
25658;BME280;13517;59.320;18.042;2023-08-07T03:18:16;99180.00;;;17.95;100.00
25658;BME280;13517;59.320;18.042;2023-08-07T03:20:42;99216.72;;;18.16;100.00
25658;BME280;13517;59.320;18.042;2023-08-07T03:23:09;99191.19;;;18.08;100.00
25658;BME280;13517;59.320;18.042;2023-08-07T03:25:34;99197.00;;;18.05;100.00
25658;BME280;13517;59.320;18.042;2023-08-07T03:28:00;99220.78;;;18.20;100.00
25658;BME280;13517;59.320;18.042;2023-08-07T03:30:25;99201.72;;;18.12;100.00
25658;BME280;13517;59.320;18.042;2023-08-07T03:32:51;99209.56;;;18.15;100.00
25658;BME280;13517;59.320;18.042;2023-08-07T03:35:16;99180.72;;;18.12;100.00
25658;BME280;13517;59.320;18.042;2023-08-07T03:37:41;99179.22;;;18.24;100.00
25658;BME280;13517;59.320;18.042;2023-08-07T03:40:07;99158.84;;;18.27;100.00
25658;BME280;13517;59.320;18.042;2023-08-07T03:42:33;99164.22;;;18.35;100.00
25658;BME280;13517;59.320;18.042;2023-08-07T03:44:58;99163.38;;;18.35;100.00
25658;BME280;13517;59.320;18.042;2023-08-07T03:47:23;99105.75;;;18.15;100.00
25658;BME280;13517;59.320;18.042;2023-08-07T03:49:49;99125.31;;;18.33;100.00
25658;BME280;13517;59.320;18.042;2023-08-07T03:52:14;99129.47;;;18.29;100.00
25658;BME280;13517;59.320;18.042;2023-08-07T03:54:40;99167.34;;;18.47;100.00
25658;BME280;13517;59.320;18.042;2023-08-07T03:57:05;99134.94;;;18.29;100.00
25658;BME280;13517;59.320;18.042;2023-08-07T03:59:31;99145.47;;;18.47;100.00
25658;BME280;13517;59.320;18.042;2023-08-07T04:01:56;99164.88;;;18.52;100.00
25658;BME280;13517;59.320;18.042;2023-08-07T04:04:22;99140.59;;;18.43;100.00
25658;BME280;13517;59.320;18.042;2023-08-07T04:06:47;99156.50;;;18.54;100.00
25658;BME280;13517;59.320;18.042;2023-08-07T04:09:13;99140.25;;;18.52;100.00
25658;BME280;13517;59.320;18.042;2023-08-07T04:11:40;99140.66;;;18.49;100.00
25658;BME280;13517;59.320;18.042;2023-08-07T04:14:05;99137.53;;;18.52;100.00
25658;BME280;13517;59.320;18.042;2023-08-07T04:16:31;99155.34;;;18.63;100.00
25658;BME280;13517;59.320;18.042;2023-08-07T04:18:56;99135.25;;;18.56;100.00
25658;BME280;13517;59.320;18.042;2023-08-07T04:21:22;99124.91;;;18.51;100.00
25658;BME280;13517;59.320;18.042;2023-08-07T04:23:47;99108.72;;;18.50;100.00
25658;BME280;13517;59.320;18.042;2023-08-07T04:26:13;99121.22;;;18.59;100.00
25658;BME280;13517;59.320;18.042;2023-08-07T04:28:39;99087.03;;;18.48;100.00
25658;BME280;13517;59.320;18.042;2023-08-07T04:31:05;99098.50;;;18.59;100.00
25658;BME280;13517;59.320;18.042;2023-08-07T04:33:30;99123.38;;;18.64;100.00
25658;BME280;13517;59.320;18.042;2023-08-07T04:35:55;99086.63;;;18.51;100.00
25658;BME280;13517;59.320;18.042;2023-08-07T04:38:21;99097.44;;;18.60;100.00
25658;BME280;13517;59.320;18.042;2023-08-07T04:40:48;99067.72;;;18.35;100.00
25658;BME280;13517;59.320;18.042;2023-08-07T04:43:15;99088.25;;;18.46;100.00
25658;BME280;13517;59.320;18.042;2023-08-07T04:45:41;99107.66;;;18.51;100.00
25658;BME280;13517;59.320;18.042;2023-08-07T04:48:07;99133.22;;;18.58;100.00
25658;BME280;13517;59.320;18.042;2023-08-07T04:50:33;99065.00;;;18.20;100.00
25658;BME280;13517;59.320;18.042;2023-08-07T04:52:58;99120.97;;;18.39;100.00
25658;BME280;13517;59.320;18.042;2023-08-07T04:55:25;99071.41;;;18.27;100.00
25658;BME280;13517;59.320;18.042;2023-08-07T04:57:50;99053.97;;;18.28;100.00
25658;BME280;13517;59.320;18.042;2023-08-07T05:00:19;99102.41;;;18.34;100.00
25658;BME280;13517;59.320;18.042;2023-08-07T05:02:45;99114.56;;;18.32;100.00
25658;BME280;13517;59.320;18.042;2023-08-07T05:05:10;99104.41;;;18.26;100.00
25658;BME280;13517;59.320;18.042;2023-08-07T05:07:36;99132.00;;;18.31;100.00
25658;BME280;13517;59.320;18.042;2023-08-07T05:10:02;99150.94;;;18.17;100.00
25658;BME280;13517;59.320;18.042;2023-08-07T05:12:29;99157.81;;;18.28;100.00
25658;BME280;13517;59.320;18.042;2023-08-07T05:14:54;99134.53;;;18.32;100.00
25658;BME280;13517;59.320;18.042;2023-08-07T05:17:20;99113.72;;;18.31;100.00
25658;BME280;13517;59.320;18.042;2023-08-07T05:19:45;99141.81;;;18.25;100.00
25658;BME280;13517;59.320;18.042;2023-08-07T05:22:10;99136.53;;;18.23;100.00
25658;BME280;13517;59.320;18.042;2023-08-07T05:24:36;99142.19;;;18.22;100.00
25658;BME280;13517;59.320;18.042;2023-08-07T05:27:13;99135.19;;;18.34;100.00
25658;BME280;13517;59.320;18.042;2023-08-07T05:29:38;99130.00;;;18.40;100.00
25658;BME280;13517;59.320;18.042;2023-08-07T05:32:13;99112.38;;;18.57;100.00
25658;BME280;13517;59.320;18.042;2023-08-07T05:34:40;99115.81;;;18.66;100.00
25658;BME280;13517;59.320;18.042;2023-08-07T05:37:06;99120.25;;;18.67;100.00
25658;BME280;13517;59.320;18.042;2023-08-07T05:39:32;99108.34;;;18.75;100.00
25658;BME280;13517;59.320;18.042;2023-08-07T05:41:57;99100.88;;;18.84;100.00
25658;BME280;13517;59.320;18.042;2023-08-07T05:44:26;99074.22;;;18.71;100.00
25658;BME280;13517;59.320;18.042;2023-08-07T05:46:52;99085.75;;;18.88;100.00
25658;BME280;13517;59.320;18.042;2023-08-07T05:49:17;99044.25;;;18.62;100.00
25658;BME280;13517;59.320;18.042;2023-08-07T05:51:44;99078.84;;;18.70;100.00
25658;BME280;13517;59.320;18.042;2023-08-07T05:54:09;99071.22;;;18.65;100.00
25658;BME280;13517;59.320;18.042;2023-08-07T05:56:37;99117.22;;;18.77;100.00
25658;BME280;13517;59.320;18.042;2023-08-07T05:59:03;99116.09;;;18.71;100.00
25658;BME280;13517;59.320;18.042;2023-08-07T06:01:29;99113.81;;;18.75;100.00
25658;BME280;13517;59.320;18.042;2023-08-07T06:03:57;99101.56;;;18.71;100.00
25658;BME280;13517;59.320;18.042;2023-08-07T06:06:24;99074.88;;;18.73;100.00
25658;BME280;13517;59.320;18.042;2023-08-07T06:08:50;99061.47;;;18.78;100.00
25658;BME280;13517;59.320;18.042;2023-08-07T06:11:15;99038.94;;;18.76;100.00
25658;BME280;13517;59.320;18.042;2023-08-07T06:13:41;99048.72;;;18.85;100.00
25658;BME280;13517;59.320;18.042;2023-08-07T06:16:06;99055.09;;;18.92;100.00
25658;BME280;13517;59.320;18.042;2023-08-07T06:18:32;99063.56;;;18.98;100.00
25658;BME280;13517;59.320;18.042;2023-08-07T06:20:59;99055.09;;;18.92;100.00
25658;BME280;13517;59.320;18.042;2023-08-07T06:23:24;99052.50;;;19.06;100.00
25658;BME280;13517;59.320;18.042;2023-08-07T06:25:50;99056.41;;;19.18;100.00
25658;BME280;13517;59.320;18.042;2023-08-07T06:28:15;99066.69;;;19.38;100.00
25658;BME280;13517;59.320;18.042;2023-08-07T06:30:41;99044.78;;;19.38;100.00
25658;BME280;13517;59.320;18.042;2023-08-07T06:33:06;99044.09;;;19.58;100.00
25658;BME280;13517;59.320;18.042;2023-08-07T06:35:37;99031.63;;;19.55;100.00
25658;BME280;13517;59.320;18.042;2023-08-07T06:38:02;99059.31;;;19.67;100.00
25658;BME280;13517;59.320;18.042;2023-08-07T06:40:28;99061.84;;;19.69;100.00
25658;BME280;13517;59.320;18.042;2023-08-07T06:42:53;99051.09;;;19.67;100.00
25658;BME280;13517;59.320;18.042;2023-08-07T06:45:19;99034.28;;;19.70;100.00
25658;BME280;13517;59.320;18.042;2023-08-07T06:47:45;99057.97;;;19.85;100.00
25658;BME280;13517;59.320;18.042;2023-08-07T06:50:10;99072.56;;;19.92;100.00
25658;BME280;13517;59.320;18.042;2023-08-07T06:52:37;99041.41;;;20.00;100.00
25658;BME280;13517;59.320;18.042;2023-08-07T06:55:03;99030.75;;;20.19;100.00
25658;BME280;13517;59.320;18.042;2023-08-07T06:57:29;99013.06;;;20.21;100.00
25658;BME280;13517;59.320;18.042;2023-08-07T06:59:54;99007.56;;;20.21;100.00
25658;BME280;13517;59.320;18.042;2023-08-07T07:02:19;99020.47;;;20.27;100.00
25658;BME280;13517;59.320;18.042;2023-08-07T07:04:45;99033.31;;;20.34;100.00
25658;BME280;13517;59.320;18.042;2023-08-07T07:07:10;99013.06;;;20.28;100.00
25658;BME280;13517;59.320;18.042;2023-08-07T07:09:36;99030.63;;;20.40;100.00
25658;BME280;13517;59.320;18.042;2023-08-07T07:12:01;99040.78;;;20.53;100.00
25658;BME280;13517;59.320;18.042;2023-08-07T07:14:27;99028.13;;;20.52;100.00
25658;BME280;13517;59.320;18.042;2023-08-07T07:16:52;99039.53;;;20.56;100.00
25658;BME280;13517;59.320;18.042;2023-08-07T07:19:18;98998.53;;;20.34;100.00
25658;BME280;13517;59.320;18.042;2023-08-07T07:21:43;99030.22;;;20.57;100.00
25658;BME280;13517;59.320;18.042;2023-08-07T07:24:09;99030.91;;;20.66;100.00
25658;BME280;13517;59.320;18.042;2023-08-07T07:26:35;99032.78;;;20.65;100.00
25658;BME280;13517;59.320;18.042;2023-08-07T07:29:00;99008.94;;;20.59;100.00
25658;BME280;13517;59.320;18.042;2023-08-07T07:31:26;99046.59;;;20.92;100.00
25658;BME280;13517;59.320;18.042;2023-08-07T07:33:51;99044.28;;;20.96;100.00
25658;BME280;13517;59.320;18.042;2023-08-07T07:36:17;99026.53;;;20.92;100.00
25658;BME280;13517;59.320;18.042;2023-08-07T07:38:47;99012.59;;;20.93;100.00
25658;BME280;13517;59.320;18.042;2023-08-07T07:41:16;99040.47;;;21.11;100.00
25658;BME280;13517;59.320;18.042;2023-08-07T07:43:41;99043.25;;;21.17;100.00
25658;BME280;13517;59.320;18.042;2023-08-07T07:46:07;99038.38;;;21.19;100.00
25658;BME280;13517;59.320;18.042;2023-08-07T07:48:33;99024.66;;;21.06;100.00
25658;BME280;13517;59.320;18.042;2023-08-07T07:51:03;99039.63;;;21.03;100.00
25658;BME280;13517;59.320;18.042;2023-08-07T07:53:29;99053.38;;;21.17;100.00
25658;BME280;13517;59.320;18.042;2023-08-07T07:55:54;99028.03;;;21.15;100.00
25658;BME280;13517;59.320;18.042;2023-08-07T07:58:20;99017.06;;;21.15;100.00
25658;BME280;13517;59.320;18.042;2023-08-07T08:00:46;99035.22;;;21.43;100.00
25658;BME280;13517;59.320;18.042;2023-08-07T08:03:12;99026.75;;;21.51;100.00
25658;BME280;13517;59.320;18.042;2023-08-07T08:05:38;99040.47;;;21.64;100.00
25658;BME280;13517;59.320;18.042;2023-08-07T08:08:05;99033.91;;;21.79;100.00
25658;BME280;13517;59.320;18.042;2023-08-07T08:10:32;99027.78;;;21.77;100.00
25658;BME280;13517;59.320;18.042;2023-08-07T08:12:57;99031.13;;;21.86;100.00
25658;BME280;13517;59.320;18.042;2023-08-07T08:15:23;99022.06;;;21.85;100.00
25658;BME280;13517;59.320;18.042;2023-08-07T08:17:48;99000.31;;;21.77;100.00
25658;BME280;13517;59.320;18.042;2023-08-07T08:20:14;99027.72;;;21.97;100.00
25658;BME280;13517;59.320;18.042;2023-08-07T08:22:44;99032.34;;;22.03;100.00
25658;BME280;13517;59.320;18.042;2023-08-07T08:25:10;99014.38;;;22.01;100.00
25658;BME280;13517;59.320;18.042;2023-08-07T08:27:37;99000.88;;;21.93;100.00
25658;BME280;13517;59.320;18.042;2023-08-07T08:30:03;98988.22;;;21.85;100.00
25658;BME280;13517;59.320;18.042;2023-08-07T08:32:29;98984.88;;;21.76;100.00
25658;BME280;13517;59.320;18.042;2023-08-07T08:34:54;99030.03;;;22.00;100.00
25658;BME280;13517;59.320;18.042;2023-08-07T08:37:20;99034.66;;;22.07;100.00
25658;BME280;13517;59.320;18.042;2023-08-07T08:39:46;99006.19;;;21.87;100.00
25658;BME280;13517;59.320;18.042;2023-08-07T08:42:12;99012.94;;;21.92;100.00
25658;BME280;13517;59.320;18.042;2023-08-07T08:44:46;98984.19;;;21.87;100.00
25658;BME280;13517;59.320;18.042;2023-08-07T08:47:14;99003.84;;;21.91;100.00
25658;BME280;13517;59.320;18.042;2023-08-07T08:49:47;98998.38;;;21.84;100.00
25658;BME280;13517;59.320;18.042;2023-08-07T08:52:13;98990.75;;;21.86;100.00
25658;BME280;13517;59.320;18.042;2023-08-07T08:54:43;98995.84;;;21.83;100.00
25658;BME280;13517;59.320;18.042;2023-08-07T08:57:09;98971.31;;;21.68;100.00
25658;BME280;13517;59.320;18.042;2023-08-07T08:59:36;98976.66;;;21.69;100.00
25658;BME280;13517;59.320;18.042;2023-08-07T09:02:02;98993.31;;;21.81;100.00
25658;BME280;13517;59.320;18.042;2023-08-07T09:04:27;98991.81;;;21.85;100.00
25658;BME280;13517;59.320;18.042;2023-08-07T09:06:52;98968.41;;;21.69;100.00
25658;BME280;13517;59.320;18.042;2023-08-07T09:09:20;98971.56;;;21.73;100.00
25658;BME280;13517;59.320;18.042;2023-08-07T09:11:47;98990.34;;;21.83;100.00
25658;BME280;13517;59.320;18.042;2023-08-07T09:14:16;98992.25;;;21.82;100.00
25658;BME280;13517;59.320;18.042;2023-08-07T09:16:45;99007.22;;;22.00;100.00
25658;BME280;13517;59.320;18.042;2023-08-07T09:19:12;99011.81;;;22.13;100.00
25658;BME280;13517;59.320;18.042;2023-08-07T09:21:38;99042.56;;;22.42;100.00
25658;BME280;13517;59.320;18.042;2023-08-07T09:24:04;99026.00;;;22.55;100.00
25658;BME280;13517;59.320;18.042;2023-08-07T09:26:31;98997.44;;;22.50;100.00
25658;BME280;13517;59.320;18.042;2023-08-07T09:28:58;98980.72;;;22.58;100.00
25658;BME280;13517;59.320;18.042;2023-08-07T09:31:24;99006.13;;;22.85;100.00
25658;BME280;13517;59.320;18.042;2023-08-07T09:33:54;99014.03;;;23.07;100.00
25658;BME280;13517;59.320;18.042;2023-08-07T09:36:19;99009.53;;;23.13;100.00
25658;BME280;13517;59.320;18.042;2023-08-07T09:38:49;99009.72;;;23.18;100.00
25658;BME280;13517;59.320;18.042;2023-08-07T09:41:18;98997.28;;;23.09;100.00
25658;BME280;13517;59.320;18.042;2023-08-07T09:43:44;99016.91;;;23.19;100.00
25658;BME280;13517;59.320;18.042;2023-08-07T09:46:10;99009.75;;;23.11;100.00
25658;BME280;13517;59.320;18.042;2023-08-07T09:48:40;98996.34;;;22.96;100.00
25658;BME280;13517;59.320;18.042;2023-08-07T09:51:06;98999.59;;;23.12;100.00
25658;BME280;13517;59.320;18.042;2023-08-07T09:53:31;99005.16;;;23.31;100.00
25658;BME280;13517;59.320;18.042;2023-08-07T09:55:57;98985.84;;;23.37;100.00
25658;BME280;13517;59.320;18.042;2023-08-07T09:58:23;98983.63;;;23.65;100.00
25658;BME280;13517;59.320;18.042;2023-08-07T10:00:50;98970.41;;;23.74;100.00
25658;BME280;13517;59.320;18.042;2023-08-07T10:03:19;98953.88;;;23.74;100.00
25658;BME280;13517;59.320;18.042;2023-08-07T10:05:45;98961.28;;;23.92;100.00
25658;BME280;13517;59.320;18.042;2023-08-07T10:08:11;98987.81;;;24.12;100.00
25658;BME280;13517;59.320;18.042;2023-08-07T10:10:38;98970.25;;;24.06;100.00
25658;BME280;13517;59.320;18.042;2023-08-07T10:13:04;98987.91;;;24.35;100.00
25658;BME280;13517;59.320;18.042;2023-08-07T10:15:31;98964.69;;;24.25;100.00
25658;BME280;13517;59.320;18.042;2023-08-07T10:17:57;98970.59;;;24.28;100.00
25658;BME280;13517;59.320;18.042;2023-08-07T10:20:26;98981.94;;;24.39;100.00
25658;BME280;13517;59.320;18.042;2023-08-07T10:22:52;98982.94;;;24.26;100.00
25658;BME280;13517;59.320;18.042;2023-08-07T10:25:20;98959.06;;;23.82;100.00
25658;BME280;13517;59.320;18.042;2023-08-07T10:27:49;98943.47;;;23.57;100.00
25658;BME280;13517;59.320;18.042;2023-08-07T10:30:18;98965.88;;;23.61;100.00
25658;BME280;13517;59.320;18.042;2023-08-07T10:32:45;98989.16;;;23.65;100.00
25658;BME280;13517;59.320;18.042;2023-08-07T10:35:32;99007.16;;;23.67;100.00
25658;BME280;13517;59.320;18.042;2023-08-07T10:38:06;98996.66;;;23.76;100.00
25658;BME280;13517;59.320;18.042;2023-08-07T10:40:32;98995.88;;;23.88;100.00
25658;BME280;13517;59.320;18.042;2023-08-07T10:42:59;98995.28;;;24.04;100.00
25658;BME280;13517;59.320;18.042;2023-08-07T10:45:27;99005.72;;;24.21;100.00
25658;BME280;13517;59.320;18.042;2023-08-07T10:50:31;99003.84;;;24.33;100.00
25658;BME280;13517;59.320;18.042;2023-08-07T10:53:02;98965.97;;;24.10;100.00
25658;BME280;13517;59.320;18.042;2023-08-07T10:55:43;98993.31;;;24.12;100.00
25658;BME280;13517;59.320;18.042;2023-08-07T10:58:21;98961.44;;;23.78;100.00
25658;BME280;13517;59.320;18.042;2023-08-07T11:00:48;98976.97;;;23.91;100.00
25658;BME280;13517;59.320;18.042;2023-08-07T11:03:26;98989.59;;;23.99;100.00
25658;BME280;13517;59.320;18.042;2023-08-07T11:05:52;98961.88;;;23.94;100.00
25658;BME280;13517;59.320;18.042;2023-08-07T11:08:22;98954.84;;;23.79;100.00
25658;BME280;13517;59.320;18.042;2023-08-07T11:10:47;98966.78;;;23.92;100.00
25658;BME280;13517;59.320;18.042;2023-08-07T11:13:13;98993.22;;;24.18;100.00
25658;BME280;13517;59.320;18.042;2023-08-07T11:15:38;98980.13;;;24.14;100.00
25658;BME280;13517;59.320;18.042;2023-08-07T11:18:04;98990.34;;;24.13;100.00
25658;BME280;13517;59.320;18.042;2023-08-07T11:20:30;98935.09;;;23.83;100.00
25658;BME280;13517;59.320;18.042;2023-08-07T11:22:55;98968.38;;;24.18;100.00
25658;BME280;13517;59.320;18.042;2023-08-07T11:25:20;98967.31;;;24.19;100.00
25658;BME280;13517;59.320;18.042;2023-08-07T11:27:46;98977.34;;;24.32;100.00
25658;BME280;13517;59.320;18.042;2023-08-07T11:30:12;98964.44;;;24.14;100.00
25658;BME280;13517;59.320;18.042;2023-08-07T11:32:37;98941.88;;;23.99;100.00
25658;BME280;13517;59.320;18.042;2023-08-07T11:35:03;98949.66;;;23.71;100.00
25658;BME280;13517;59.320;18.042;2023-08-07T11:37:30;98984.69;;;23.45;100.00
25658;BME280;13517;59.320;18.042;2023-08-07T11:40:01;98970.81;;;23.08;100.00
25658;BME280;13517;59.320;18.042;2023-08-07T11:42:27;98944.16;;;22.76;100.00
25658;BME280;13517;59.320;18.042;2023-08-07T11:44:53;98982.28;;;22.79;100.00
25658;BME280;13517;59.320;18.042;2023-08-07T11:47:18;98993.72;;;22.76;100.00
25658;BME280;13517;59.320;18.042;2023-08-07T11:49:44;98977.53;;;22.61;100.00
25658;BME280;13517;59.320;18.042;2023-08-07T11:52:09;98997.31;;;22.77;100.00
25658;BME280;13517;59.320;18.042;2023-08-07T11:54:35;98954.50;;;22.49;100.00
25658;BME280;13517;59.320;18.042;2023-08-07T11:57:00;98948.81;;;22.43;100.00
25658;BME280;13517;59.320;18.042;2023-08-07T11:59:26;98976.72;;;22.54;100.00
25658;BME280;13517;59.320;18.042;2023-08-07T12:01:51;98963.19;;;22.52;100.00
25658;BME280;13517;59.320;18.042;2023-08-07T12:04:17;98957.72;;;22.78;100.00
25658;BME280;13517;59.320;18.042;2023-08-07T12:06:54;98939.81;;;22.68;100.00
25658;BME280;13517;59.320;18.042;2023-08-07T12:09:20;98929.69;;;22.62;100.00
25658;BME280;13517;59.320;18.042;2023-08-07T12:11:45;98916.72;;;22.69;100.00
25658;BME280;13517;59.320;18.042;2023-08-07T12:14:13;98941.47;;;23.20;100.00
25658;BME280;13517;59.320;18.042;2023-08-07T12:16:46;98933.50;;;23.37;100.00
25658;BME280;13517;59.320;18.042;2023-08-07T12:19:12;98913.50;;;23.42;100.00
25658;BME280;13517;59.320;18.042;2023-08-07T12:21:39;98911.06;;;23.52;100.00
25658;BME280;13517;59.320;18.042;2023-08-07T12:24:07;98966.63;;;23.87;100.00
25658;BME280;13517;59.320;18.042;2023-08-07T12:26:33;98972.78;;;23.89;100.00
25658;BME280;13517;59.320;18.042;2023-08-07T12:28:58;98930.13;;;23.54;100.00
25658;BME280;13517;59.320;18.042;2023-08-07T12:31:23;98989.75;;;23.86;100.00
25658;BME280;13517;59.320;18.042;2023-08-07T12:33:49;98946.19;;;23.76;100.00
25658;BME280;13517;59.320;18.042;2023-08-07T12:36:14;98967.88;;;23.91;100.00
25658;BME280;13517;59.320;18.042;2023-08-07T12:38:40;98924.84;;;23.71;100.00
25658;BME280;13517;59.320;18.042;2023-08-07T12:41:06;98941.22;;;24.03;100.00
25658;BME280;13517;59.320;18.042;2023-08-07T12:43:31;98945.03;;;24.21;100.00